sensor_id;sensor_type;location;lat;lon;timestamp;pressure;altitude;pressure_sealevel;temperature;humidity
7474;BME280;3778;42.572;23.426;2023-12-29T00:01:23;94259.16;;;0.45;82.66
7474;BME280;3778;42.572;23.426;2023-12-29T00:03:49;94250.94;;;0.43;83.55
7474;BME280;3778;42.572;23.426;2023-12-29T00:06:14;94249.97;;;0.44;82.05
7474;BME280;3778;42.572;23.426;2023-12-29T00:08:40;94253.53;;;0.49;83.39
7474;BME280;3778;42.572;23.426;2023-12-29T00:11:05;94250.63;;;0.52;82.07
7474;BME280;3778;42.572;23.426;2023-12-29T00:13:32;94251.44;;;0.60;82.54
7474;BME280;3778;42.572;23.426;2023-12-29T00:15:57;94255.94;;;0.58;82.88
7474;BME280;3778;42.572;23.426;2023-12-29T00:18:22;94254.47;;;0.48;82.39
7474;BME280;3778;42.572;23.426;2023-12-29T00:20:49;94252.09;;;0.40;82.40
7474;BME280;3778;42.572;23.426;2023-12-29T00:23:15;94252.63;;;0.36;83.35
7474;BME280;3778;42.572;23.426;2023-12-29T00:25:40;94259.44;;;0.35;82.39
7474;BME280;3778;42.572;23.426;2023-12-29T00:28:05;94260.59;;;0.33;83.07
7474;BME280;3778;42.572;23.426;2023-12-29T00:30:31;94263.19;;;0.39;82.71
7474;BME280;3778;42.572;23.426;2023-12-29T00:32:57;94265.34;;;0.42;82.87
7474;BME280;3778;42.572;23.426;2023-12-29T00:35:22;94271.28;;;0.49;82.69
7474;BME280;3778;42.572;23.426;2023-12-29T00:37:47;94261.31;;;0.48;82.75
7474;BME280;3778;42.572;23.426;2023-12-29T00:40:13;94256.63;;;0.45;82.72
7474;BME280;3778;42.572;23.426;2023-12-29T00:42:38;94251.94;;;0.48;82.15
7474;BME280;3778;42.572;23.426;2023-12-29T00:45:04;94259.50;;;0.42;82.39
7474;BME280;3778;42.572;23.426;2023-12-29T00:47:30;94253.28;;;0.44;82.29
7474;BME280;3778;42.572;23.426;2023-12-29T00:49:56;94255.66;;;0.46;81.92
7474;BME280;3778;42.572;23.426;2023-12-29T00:52:21;94254.13;;;0.51;81.41
7474;BME280;3778;42.572;23.426;2023-12-29T00:54:47;94254.47;;;0.48;80.96
7474;BME280;3778;42.572;23.426;2023-12-29T00:57:12;94253.66;;;0.41;82.78
7474;BME280;3778;42.572;23.426;2023-12-29T00:59:38;94245.63;;;0.38;82.85
7474;BME280;3778;42.572;23.426;2023-12-29T01:02:07;94237.97;;;0.31;81.55
7474;BME280;3778;42.572;23.426;2023-12-29T01:04:33;94242.38;;;0.22;83.28
7474;BME280;3778;42.572;23.426;2023-12-29T01:06:58;94240.63;;;0.23;82.41
7474;BME280;3778;42.572;23.426;2023-12-29T01:09:25;94237.94;;;0.24;83.47
7474;BME280;3778;42.572;23.426;2023-12-29T01:11:51;94236.19;;;0.25;82.46
7474;BME280;3778;42.572;23.426;2023-12-29T01:14:16;94240.28;;;0.26;83.01
7474;BME280;3778;42.572;23.426;2023-12-29T01:16:41;94233.22;;;0.21;82.03
7474;BME280;3778;42.572;23.426;2023-12-29T01:19:07;94241.00;;;0.20;83.40
7474;BME280;3778;42.572;23.426;2023-12-29T01:21:32;94244.50;;;0.19;83.44
7474;BME280;3778;42.572;23.426;2023-12-29T01:24:02;94236.84;;;0.12;82.82
7474;BME280;3778;42.572;23.426;2023-12-29T01:26:36;94237.34;;;0.01;82.78
7474;BME280;3778;42.572;23.426;2023-12-29T01:29:02;94243.19;;;0.02;83.67
7474;BME280;3778;42.572;23.426;2023-12-29T01:31:30;94235.34;;;-0.04;84.35
7474;BME280;3778;42.572;23.426;2023-12-29T01:33:56;94229.03;;;-0.08;83.89
7474;BME280;3778;42.572;23.426;2023-12-29T01:36:21;94236.66;;;-0.08;83.80
7474;BME280;3778;42.572;23.426;2023-12-29T01:38:47;94233.81;;;0.02;83.59
7474;BME280;3778;42.572;23.426;2023-12-29T01:41:12;94229.00;;;0.07;84.32
7474;BME280;3778;42.572;23.426;2023-12-29T01:46:29;94219.41;;;0.03;83.46
7474;BME280;3778;42.572;23.426;2023-12-29T01:48:55;94219.34;;;-0.04;83.91
7474;BME280;3778;42.572;23.426;2023-12-29T01:51:21;94224.75;;;-0.07;82.74
7474;BME280;3778;42.572;23.426;2023-12-29T01:53:49;94230.59;;;-0.07;83.79
7474;BME280;3778;42.572;23.426;2023-12-29T01:56:16;94233.75;;;-0.05;83.68
7474;BME280;3778;42.572;23.426;2023-12-29T01:58:43;94228.25;;;-0.08;83.67
7474;BME280;3778;42.572;23.426;2023-12-29T02:01:09;94221.38;;;-0.14;84.03
7474;BME280;3778;42.572;23.426;2023-12-29T02:03:35;94229.66;;;-0.27;83.31
7474;BME280;3778;42.572;23.426;2023-12-29T02:06:01;94227.81;;;-0.33;84.75
7474;BME280;3778;42.572;23.426;2023-12-29T02:08:27;94228.59;;;-0.33;84.69
7474;BME280;3778;42.572;23.426;2023-12-29T02:10:52;94223.97;;;-0.29;84.82
7474;BME280;3778;42.572;23.426;2023-12-29T02:13:19;94230.06;;;-0.23;85.89
7474;BME280;3778;42.572;23.426;2023-12-29T02:15:45;94243.78;;;-0.18;85.57
7474;BME280;3778;42.572;23.426;2023-12-29T02:18:14;94235.88;;;-0.08;84.33
7474;BME280;3778;42.572;23.426;2023-12-29T02:20:41;94232.78;;;-0.04;85.39
7474;BME280;3778;42.572;23.426;2023-12-29T02:23:07;94230.84;;;-0.02;85.25
7474;BME280;3778;42.572;23.426;2023-12-29T02:25:33;94221.69;;;-0.03;84.20
7474;BME280;3778;42.572;23.426;2023-12-29T02:28:09;94226.69;;;-0.09;85.05
7474;BME280;3778;42.572;23.426;2023-12-29T02:30:44;94217.47;;;-0.17;84.33
7474;BME280;3778;42.572;23.426;2023-12-29T02:33:16;94205.16;;;-0.20;84.78
7474;BME280;3778;42.572;23.426;2023-12-29T02:35:45;94201.84;;;-0.20;85.60
7474;BME280;3778;42.572;23.426;2023-12-29T02:38:11;94204.56;;;-0.22;84.99
7474;BME280;3778;42.572;23.426;2023-12-29T02:40:38;94199.31;;;-0.20;84.30
7474;BME280;3778;42.572;23.426;2023-12-29T02:43:03;94202.63;;;-0.20;84.70
7474;BME280;3778;42.572;23.426;2023-12-29T02:45:29;94199.91;;;-0.18;85.04
7474;BME280;3778;42.572;23.426;2023-12-29T02:47:54;94195.66;;;-0.18;84.35
7474;BME280;3778;42.572;23.426;2023-12-29T02:50:20;94186.41;;;-0.25;84.65
7474;BME280;3778;42.572;23.426;2023-12-29T02:52:45;94175.22;;;-0.31;85.36
7474;BME280;3778;42.572;23.426;2023-12-29T02:55:11;94175.44;;;-0.33;86.74
7474;BME280;3778;42.572;23.426;2023-12-29T02:57:37;94169.22;;;-0.30;85.76
7474;BME280;3778;42.572;23.426;2023-12-29T03:00:04;94167.69;;;-0.24;85.58
7474;BME280;3778;42.572;23.426;2023-12-29T03:02:29;94161.13;;;-0.19;86.54
7474;BME280;3778;42.572;23.426;2023-12-29T03:04:55;94160.34;;;-0.19;85.45
7474;BME280;3778;42.572;23.426;2023-12-29T03:07:20;94154.50;;;-0.20;86.32
7474;BME280;3778;42.572;23.426;2023-12-29T03:09:46;94146.53;;;-0.17;85.55
7474;BME280;3778;42.572;23.426;2023-12-29T03:12:11;94157.28;;;-0.15;86.67
7474;BME280;3778;42.572;23.426;2023-12-29T03:14:36;94152.78;;;-0.13;86.08
7474;BME280;3778;42.572;23.426;2023-12-29T03:17:02;94140.13;;;-0.13;86.04
7474;BME280;3778;42.572;23.426;2023-12-29T03:19:27;94131.94;;;-0.15;86.35
7474;BME280;3778;42.572;23.426;2023-12-29T03:21:52;94122.78;;;-0.16;85.31
7474;BME280;3778;42.572;23.426;2023-12-29T03:24:19;94120.84;;;-0.14;85.53
7474;BME280;3778;42.572;23.426;2023-12-29T03:26:44;94111.09;;;-0.17;86.55
7474;BME280;3778;42.572;23.426;2023-12-29T03:29:10;94113.84;;;-0.12;85.09
7474;BME280;3778;42.572;23.426;2023-12-29T03:31:36;94118.09;;;-0.12;85.10
7474;BME280;3778;42.572;23.426;2023-12-29T03:34:01;94111.91;;;-0.10;85.58
7474;BME280;3778;42.572;23.426;2023-12-29T03:36:26;94116.00;;;-0.09;86.22
7474;BME280;3778;42.572;23.426;2023-12-29T03:38:52;94120.09;;;-0.08;85.60
7474;BME280;3778;42.572;23.426;2023-12-29T03:41:17;94121.66;;;-0.07;86.08
7474;BME280;3778;42.572;23.426;2023-12-29T03:43:44;94127.69;;;-0.08;85.54
7474;BME280;3778;42.572;23.426;2023-12-29T03:46:22;94128.47;;;-0.07;84.95
7474;BME280;3778;42.572;23.426;2023-12-29T03:48:48;94127.69;;;-0.08;85.14
7474;BME280;3778;42.572;23.426;2023-12-29T03:51:14;94139.25;;;-0.05;85.62
7474;BME280;3778;42.572;23.426;2023-12-29T03:53:40;94136.50;;;-0.04;85.31
7474;BME280;3778;42.572;23.426;2023-12-29T03:56:13;94139.81;;;-0.03;85.78
7474;BME280;3778;42.572;23.426;2023-12-29T03:58:38;94140.59;;;-0.03;84.68
7474;BME280;3778;42.572;23.426;2023-12-29T04:01:04;94146.88;;;0.02;85.99
7474;BME280;3778;42.572;23.426;2023-12-29T04:03:34;94154.53;;;0.08;85.10
7474;BME280;3778;42.572;23.426;2023-12-29T04:05:59;94152.00;;;0.08;85.60
7474;BME280;3778;42.572;23.426;2023-12-29T04:08:24;94151.63;;;0.11;85.17
7474;BME280;3778;42.572;23.426;2023-12-29T04:10:50;94147.53;;;0.10;84.67
7474;BME280;3778;42.572;23.426;2023-12-29T04:13:15;94140.47;;;0.06;85.07
7474;BME280;3778;42.572;23.426;2023-12-29T04:15:40;94151.72;;;-0.04;85.40
7474;BME280;3778;42.572;23.426;2023-12-29T04:18:06;94150.16;;;-0.05;84.71
7474;BME280;3778;42.572;23.426;2023-12-29T04:20:31;94160.81;;;-0.09;85.05
7474;BME280;3778;42.572;23.426;2023-12-29T04:22:57;94150.22;;;-0.19;83.84
7474;BME280;3778;42.572;23.426;2023-12-29T04:25:22;94149.19;;;-0.25;84.88
7474;BME280;3778;42.572;23.426;2023-12-29T04:27:47;94159.31;;;-0.25;86.21
7474;BME280;3778;42.572;23.426;2023-12-29T04:30:13;94151.66;;;-0.32;86.14
7474;BME280;3778;42.572;23.426;2023-12-29T04:32:38;94148.09;;;-0.37;86.45
7474;BME280;3778;42.572;23.426;2023-12-29T04:35:04;94156.47;;;-0.37;86.37
7474;BME280;3778;42.572;23.426;2023-12-29T04:37:30;94153.41;;;-0.32;85.40
7474;BME280;3778;42.572;23.426;2023-12-29T04:39:55;94155.69;;;-0.37;86.39
7474;BME280;3778;42.572;23.426;2023-12-29T04:42:20;94161.91;;;-0.40;86.31
7474;BME280;3778;42.572;23.426;2023-12-29T04:44:46;94157.63;;;-0.39;86.71
7474;BME280;3778;42.572;23.426;2023-12-29T04:47:11;94161.13;;;-0.40;85.73
7474;BME280;3778;42.572;23.426;2023-12-29T04:49:36;94152.31;;;-0.44;85.52
7474;BME280;3778;42.572;23.426;2023-12-29T04:52:02;94152.31;;;-0.44;85.92
7474;BME280;3778;42.572;23.426;2023-12-29T04:54:27;94154.25;;;-0.46;86.66
7474;BME280;3778;42.572;23.426;2023-12-29T04:56:53;94151.91;;;-0.48;86.39
7474;BME280;3778;42.572;23.426;2023-12-29T04:59:18;94151.47;;;-0.51;86.80
7474;BME280;3778;42.572;23.426;2023-12-29T05:01:44;94150.69;;;-0.52;86.25
7474;BME280;3778;42.572;23.426;2023-12-29T05:04:09;94146.94;;;-0.56;85.71
7474;BME280;3778;42.572;23.426;2023-12-29T05:06:35;94153.22;;;-0.52;85.68
7474;BME280;3778;42.572;23.426;2023-12-29T05:09:00;94142.50;;;-0.54;86.62
7474;BME280;3778;42.572;23.426;2023-12-29T05:11:25;94146.88;;;-0.63;86.99
7474;BME280;3778;42.572;23.426;2023-12-29T05:13:51;94135.91;;;-0.70;86.27
7474;BME280;3778;42.572;23.426;2023-12-29T05:16:16;94136.63;;;-0.76;85.80
7474;BME280;3778;42.572;23.426;2023-12-29T05:18:42;94140.72;;;-0.75;85.82
7474;BME280;3778;42.572;23.426;2023-12-29T05:21:17;94130.97;;;-0.78;86.94
7474;BME280;3778;42.572;23.426;2023-12-29T05:23:45;94130.00;;;-0.77;86.50
7474;BME280;3778;42.572;23.426;2023-12-29T05:26:12;94131.75;;;-0.77;86.25
7474;BME280;3778;42.572;23.426;2023-12-29T05:28:38;94133.84;;;-0.81;86.08
7474;BME280;3778;42.572;23.426;2023-12-29T05:31:03;94138.66;;;-0.86;85.76
7474;BME280;3778;42.572;23.426;2023-12-29T05:33:30;94137.28;;;-0.89;86.90
7474;BME280;3778;42.572;23.426;2023-12-29T05:35:56;94136.69;;;-0.91;86.43
7474;BME280;3778;42.572;23.426;2023-12-29T05:38:21;94130.81;;;-0.91;86.59
7474;BME280;3778;42.572;23.426;2023-12-29T05:40:47;94123.47;;;-0.86;87.23
7474;BME280;3778;42.572;23.426;2023-12-29T05:43:12;94121.72;;;-0.86;86.59
7474;BME280;3778;42.572;23.426;2023-12-29T05:45:37;94121.38;;;-0.83;85.60
7474;BME280;3778;42.572;23.426;2023-12-29T05:48:03;94121.78;;;-0.79;85.67
7474;BME280;3778;42.572;23.426;2023-12-29T05:50:28;94131.56;;;-0.76;85.28
7474;BME280;3778;42.572;23.426;2023-12-29T05:52:54;94123.78;;;-0.74;86.66
7474;BME280;3778;42.572;23.426;2023-12-29T05:55:19;94129.81;;;-0.75;85.91
7474;BME280;3778;42.572;23.426;2023-12-29T05:57:45;94137.59;;;-0.77;85.15
7474;BME280;3778;42.572;23.426;2023-12-29T06:00:11;94142.84;;;-0.78;86.06
7474;BME280;3778;42.572;23.426;2023-12-29T06:02:42;94137.59;;;-0.77;85.75
7474;BME280;3778;42.572;23.426;2023-12-29T06:05:10;94135.06;;;-0.77;86.73
7474;BME280;3778;42.572;23.426;2023-12-29T06:07:36;94134.53;;;-0.72;86.62
7474;BME280;3778;42.572;23.426;2023-12-29T06:10:02;94141.50;;;-0.74;85.69
7474;BME280;3778;42.572;23.426;2023-12-29T06:12:27;94130.97;;;-0.78;85.39
7474;BME280;3778;42.572;23.426;2023-12-29T06:14:53;94132.28;;;-0.82;85.82
7474;BME280;3778;42.572;23.426;2023-12-29T06:17:18;94128.19;;;-0.83;86.04
7474;BME280;3778;42.572;23.426;2023-12-29T06:19:44;94126.84;;;-0.79;86.56
7474;BME280;3778;42.572;23.426;2023-12-29T06:22:09;94125.34;;;-0.73;86.32
7474;BME280;3778;42.572;23.426;2023-12-29T06:24:40;94112.28;;;-0.77;86.06
7474;BME280;3778;42.572;23.426;2023-12-29T06:27:08;94114.69;;;-0.69;85.49
7474;BME280;3778;42.572;23.426;2023-12-29T06:29:33;94111.97;;;-0.67;85.44
7474;BME280;3778;42.572;23.426;2023-12-29T06:31:59;94107.69;;;-0.67;84.98
7474;BME280;3778;42.572;23.426;2023-12-29T06:34:24;94110.41;;;-0.68;84.50
7474;BME280;3778;42.572;23.426;2023-12-29T06:36:50;94109.88;;;-0.64;85.06
7474;BME280;3778;42.572;23.426;2023-12-29T06:39:15;94098.59;;;-0.61;84.93
7474;BME280;3778;42.572;23.426;2023-12-29T06:41:41;94097.66;;;-0.60;85.31
7474;BME280;3778;42.572;23.426;2023-12-29T06:44:06;94105.06;;;-0.59;84.87
7474;BME280;3778;42.572;23.426;2023-12-29T06:46:32;94118.94;;;-0.55;84.16
7474;BME280;3778;42.572;23.426;2023-12-29T06:48:57;94125.00;;;-0.49;84.76
7474;BME280;3778;42.572;23.426;2023-12-29T06:51:23;94127.13;;;-0.52;84.02
7474;BME280;3778;42.572;23.426;2023-12-29T06:53:49;94128.16;;;-0.47;84.28
7474;BME280;3778;42.572;23.426;2023-12-29T06:56:16;94134.13;;;-0.33;84.11
7474;BME280;3778;42.572;23.426;2023-12-29T06:58:42;94137.16;;;-0.23;84.21
7474;BME280;3778;42.572;23.426;2023-12-29T07:01:07;94128.44;;;-0.14;84.23
7474;BME280;3778;42.572;23.426;2023-12-29T07:03:33;94137.09;;;-0.02;83.27
7474;BME280;3778;42.572;23.426;2023-12-29T07:06:01;94136.38;;;0.05;83.10
7474;BME280;3778;42.572;23.426;2023-12-29T07:08:27;94143.06;;;0.12;81.92
7474;BME280;3778;42.572;23.426;2023-12-29T07:10:53;94136.66;;;0.16;82.57
7474;BME280;3778;42.572;23.426;2023-12-29T07:13:18;94131.47;;;0.24;81.50
7474;BME280;3778;42.572;23.426;2023-12-29T07:15:45;94141.03;;;0.29;81.80
7474;BME280;3778;42.572;23.426;2023-12-29T07:18:10;94136.97;;;0.35;80.54
7474;BME280;3778;42.572;23.426;2023-12-29T07:20:36;94140.47;;;0.34;82.17
7474;BME280;3778;42.572;23.426;2023-12-29T07:23:01;94140.91;;;0.37;80.80
7474;BME280;3778;42.572;23.426;2023-12-29T07:25:27;94141.69;;;0.38;80.50
7474;BME280;3778;42.572;23.426;2023-12-29T07:27:52;94137.25;;;0.46;80.42
7474;BME280;3778;42.572;23.426;2023-12-29T07:30:18;94134.16;;;0.51;81.29
7474;BME280;3778;42.572;23.426;2023-12-29T07:32:43;94123.50;;;0.62;79.93
7474;BME280;3778;42.572;23.426;2023-12-29T07:35:09;94122.94;;;0.67;80.68
7474;BME280;3778;42.572;23.426;2023-12-29T07:37:35;94118.81;;;0.66;81.14
7474;BME280;3778;42.572;23.426;2023-12-29T07:40:00;94111.19;;;0.66;79.89
7474;BME280;3778;42.572;23.426;2023-12-29T07:42:25;94112.41;;;0.70;80.94
7474;BME280;3778;42.572;23.426;2023-12-29T07:44:51;94110.09;;;0.75;79.76
7474;BME280;3778;42.572;23.426;2023-12-29T07:47:17;94104.22;;;0.74;79.70
7474;BME280;3778;42.572;23.426;2023-12-29T07:49:42;94116.53;;;0.77;79.84
7474;BME280;3778;42.572;23.426;2023-12-29T07:52:08;94117.94;;;0.87;79.95
7474;BME280;3778;42.572;23.426;2023-12-29T07:54:34;94111.56;;;0.97;79.49
7474;BME280;3778;42.572;23.426;2023-12-29T07:56:59;94113.72;;;1.14;79.80
7474;BME280;3778;42.572;23.426;2023-12-29T07:59:25;94112.81;;;1.28;78.94
7474;BME280;3778;42.572;23.426;2023-12-29T08:01:50;94108.34;;;1.43;78.15
7474;BME280;3778;42.572;23.426;2023-12-29T08:04:16;94109.34;;;1.55;78.53
7474;BME280;3778;42.572;23.426;2023-12-29T08:06:41;94116.59;;;1.72;76.80
7474;BME280;3778;42.572;23.426;2023-12-29T08:09:06;94111.50;;;1.85;76.62
7474;BME280;3778;42.572;23.426;2023-12-29T08:11:33;94115.63;;;1.99;75.95
7474;BME280;3778;42.572;23.426;2023-12-29T08:13:58;94118.94;;;2.00;76.59
7474;BME280;3778;42.572;23.426;2023-12-29T08:16:23;94125.59;;;2.07;76.33
7474;BME280;3778;42.572;23.426;2023-12-29T08:18:49;94126.75;;;2.18;75.88
7474;BME280;3778;42.572;23.426;2023-12-29T08:21:18;94134.56;;;2.36;75.58
7474;BME280;3778;42.572;23.426;2023-12-29T08:23:47;94139.44;;;2.51;74.25
7474;BME280;3778;42.572;23.426;2023-12-29T08:26:13;94130.78;;;2.72;74.86
7474;BME280;3778;42.572;23.426;2023-12-29T08:28:38;94131.56;;;2.79;73.27
7474;BME280;3778;42.572;23.426;2023-12-29T08:31:04;94117.03;;;2.93;73.29
7474;BME280;3778;42.572;23.426;2023-12-29T08:33:30;94111.13;;;2.99;72.80
7474;BME280;3778;42.572;23.426;2023-12-29T08:35:56;94116.75;;;3.08;73.10
7474;BME280;3778;42.572;23.426;2023-12-29T08:38:28;94118.50;;;3.14;71.68
7474;BME280;3778;42.572;23.426;2023-12-29T08:40:54;94110.00;;;3.27;72.37
7474;BME280;3778;42.572;23.426;2023-12-29T08:43:19;94112.09;;;3.43;72.66
7474;BME280;3778;42.572;23.426;2023-12-29T08:45:50;94118.63;;;3.64;72.13
7474;BME280;3778;42.572;23.426;2023-12-29T08:48:15;94117.91;;;3.82;71.10
7474;BME280;3778;42.572;23.426;2023-12-29T08:50:41;94128.94;;;4.07;70.44
7474;BME280;3778;42.572;23.426;2023-12-29T08:53:08;94128.03;;;4.20;69.17
7474;BME280;3778;42.572;23.426;2023-12-29T08:55:34;94128.59;;;4.22;69.60
7474;BME280;3778;42.572;23.426;2023-12-29T08:57:59;94139.84;;;4.39;68.35
7474;BME280;3778;42.572;23.426;2023-12-29T09:00:24;94138.38;;;4.50;67.95
7474;BME280;3778;42.572;23.426;2023-12-29T09:02:50;94144.31;;;4.44;68.83
7474;BME280;3778;42.572;23.426;2023-12-29T09:05:15;94148.59;;;4.50;68.47
7474;BME280;3778;42.572;23.426;2023-12-29T09:07:41;94149.22;;;4.45;69.05
7474;BME280;3778;42.572;23.426;2023-12-29T09:10:06;94149.88;;;4.34;69.96
7474;BME280;3778;42.572;23.426;2023-12-29T09:12:38;94149.88;;;4.34;69.75
7474;BME280;3778;42.572;23.426;2023-12-29T09:15:05;94151.09;;;4.32;68.09
7474;BME280;3778;42.572;23.426;2023-12-29T09:17:30;94147.50;;;4.39;70.49
7474;BME280;3778;42.572;23.426;2023-12-29T09:19:55;94141.91;;;4.49;69.54
7474;BME280;3778;42.572;23.426;2023-12-29T09:22:21;94141.81;;;4.62;67.99
7474;BME280;3778;42.572;23.426;2023-12-29T09:24:46;94138.97;;;4.70;68.49
7474;BME280;3778;42.572;23.426;2023-12-29T09:27:12;94128.97;;;4.87;67.89
7474;BME280;3778;42.572;23.426;2023-12-29T09:29:37;94122.84;;;5.06;66.35
7474;BME280;3778;42.572;23.426;2023-12-29T09:32:03;94127.25;;;5.18;67.08
7474;BME280;3778;42.572;23.426;2023-12-29T09:34:28;94113.53;;;5.30;67.55
7474;BME280;3778;42.572;23.426;2023-12-29T09:36:54;94112.84;;;5.53;65.96
7474;BME280;3778;42.572;23.426;2023-12-29T09:39:19;94102.19;;;5.68;66.24
7474;BME280;3778;42.572;23.426;2023-12-29T09:41:46;94096.47;;;5.84;65.86
7474;BME280;3778;42.572;23.426;2023-12-29T09:44:14;94095.63;;;6.02;66.47
7474;BME280;3778;42.572;23.426;2023-12-29T09:46:41;94095.41;;;6.15;66.45
7474;BME280;3778;42.572;23.426;2023-12-29T09:49:08;94094.19;;;6.41;64.49
7474;BME280;3778;42.572;23.426;2023-12-29T09:51:35;94088.28;;;6.53;63.54
7474;BME280;3778;42.572;23.426;2023-12-29T09:54:02;94091.84;;;6.63;63.08
7474;BME280;3778;42.572;23.426;2023-12-29T09:56:28;94080.56;;;6.76;62.33
7474;BME280;3778;42.572;23.426;2023-12-29T09:58:54;94074.91;;;6.74;62.54
7474;BME280;3778;42.572;23.426;2023-12-29T10:01:21;94072.41;;;6.91;63.85
7474;BME280;3778;42.572;23.426;2023-12-29T10:03:48;94074.41;;;6.89;62.64
7474;BME280;3778;42.572;23.426;2023-12-29T10:06:17;94068.38;;;6.95;62.84
7474;BME280;3778;42.572;23.426;2023-12-29T10:08:45;94066.44;;;7.14;62.59
7474;BME280;3778;42.572;23.426;2023-12-29T10:11:13;94048.31;;;7.32;62.51
7474;BME280;3778;42.572;23.426;2023-12-29T10:13:42;94053.91;;;7.46;61.52
7474;BME280;3778;42.572;23.426;2023-12-29T10:16:32;94049.22;;;7.71;61.10
7474;BME280;3778;42.572;23.426;2023-12-29T10:22:05;94039.09;;;8.32;60.19
7474;BME280;3778;42.572;23.426;2023-12-29T10:24:34;94029.00;;;8.64;57.91
7474;BME280;3778;42.572;23.426;2023-12-29T10:27:00;94031.59;;;8.91;57.30
7474;BME280;3778;42.572;23.426;2023-12-29T10:29:27;94029.47;;;9.05;56.48
7474;BME280;3778;42.572;23.426;2023-12-29T10:31:52;94020.41;;;9.24;55.29
7474;BME280;3778;42.572;23.426;2023-12-29T10:34:22;94020.47;;;9.07;56.11
7474;BME280;3778;42.572;23.426;2023-12-29T10:36:58;94019.97;;;8.83;56.72
7474;BME280;3778;42.572;23.426;2023-12-29T10:39:24;94022.47;;;8.56;57.69
7474;BME280;3778;42.572;23.426;2023-12-29T10:42:03;94022.22;;;8.58;58.48
7474;BME280;3778;42.572;23.426;2023-12-29T10:44:29;94018.66;;;8.59;58.49
7474;BME280;3778;42.572;23.426;2023-12-29T10:46:55;94020.84;;;8.72;58.13
7474;BME280;3778;42.572;23.426;2023-12-29T10:49:20;94011.25;;;8.63;57.76
7474;BME280;3778;42.572;23.426;2023-12-29T10:51:45;94005.72;;;8.54;58.49
7474;BME280;3778;42.572;23.426;2023-12-29T10:54:19;94007.53;;;8.75;58.89
7474;BME280;3778;42.572;23.426;2023-12-29T10:57:00;94004.22;;;9.02;57.57
7474;BME280;3778;42.572;23.426;2023-12-29T10:59:26;93999.59;;;9.04;57.12
7474;BME280;3778;42.572;23.426;2023-12-29T11:01:52;93996.56;;;9.34;55.81
7474;BME280;3778;42.572;23.426;2023-12-29T11:04:21;93985.13;;;9.47;55.81
7474;BME280;3778;42.572;23.426;2023-12-29T11:06:47;93987.50;;;9.58;56.74
7474;BME280;3778;42.572;23.426;2023-12-29T11:09:13;93974.72;;;9.68;56.03
7474;BME280;3778;42.572;23.426;2023-12-29T11:11:39;93975.94;;;9.98;54.46
7474;BME280;3778;42.572;23.426;2023-12-29T11:14:05;93970.50;;;10.27;51.89
7474;BME280;3778;42.572;23.426;2023-12-29T11:16:31;93967.25;;;10.52;51.52
7474;BME280;3778;42.572;23.426;2023-12-29T11:19:00;93959.31;;;10.68;52.02
7474;BME280;3778;42.572;23.426;2023-12-29T11:21:27;93949.31;;;10.87;50.92
7474;BME280;3778;42.572;23.426;2023-12-29T11:23:55;93944.47;;;11.16;52.35
7474;BME280;3778;42.572;23.426;2023-12-29T11:26:21;93952.25;;;11.47;51.63
7474;BME280;3778;42.572;23.426;2023-12-29T11:28:47;93940.38;;;11.61;49.31
7474;BME280;3778;42.572;23.426;2023-12-29T11:31:18;93944.50;;;11.72;47.64
7474;BME280;3778;42.572;23.426;2023-12-29T11:33:52;93939.09;;;11.84;49.08
7474;BME280;3778;42.572;23.426;2023-12-29T11:36:28;93933.31;;;12.13;46.07
7474;BME280;3778;42.572;23.426;2023-12-29T11:38:58;93938.47;;;12.33;45.07
7474;BME280;3778;42.572;23.426;2023-12-29T11:41:33;93927.25;;;12.58;42.49
7474;BME280;3778;42.572;23.426;2023-12-29T11:44:01;93934.44;;;12.61;43.08
7474;BME280;3778;42.572;23.426;2023-12-29T11:46:37;93936.31;;;12.50;42.71
7474;BME280;3778;42.572;23.426;2023-12-29T11:49:04;93942.81;;;12.38;43.52
7474;BME280;3778;42.572;23.426;2023-12-29T11:51:34;93938.22;;;12.19;43.72
7474;BME280;3778;42.572;23.426;2023-12-29T11:54:03;93937.91;;;12.36;43.20
7474;BME280;3778;42.572;23.426;2023-12-29T11:56:40;93926.22;;;12.54;43.87
7474;BME280;3778;42.572;23.426;2023-12-29T11:59:25;93931.38;;;12.54;44.57
7474;BME280;3778;42.572;23.426;2023-12-29T12:01:52;93924.56;;;12.73;42.68
7474;BME280;3778;42.572;23.426;2023-12-29T12:04:37;93928.19;;;12.77;41.92
7474;BME280;3778;42.572;23.426;2023-12-29T12:07:05;93924.72;;;12.92;41.60
7474;BME280;3778;42.572;23.426;2023-12-29T12:09:32;93927.03;;;12.99;41.18
7474;BME280;3778;42.572;23.426;2023-12-29T12:12:00;93923.75;;;13.27;42.22
7474;BME280;3778;42.572;23.426;2023-12-29T12:14:53;93922.66;;;13.38;41.93
7474;BME280;3778;42.572;23.426;2023-12-29T12:17:34;93919.22;;;13.48;41.33
7474;BME280;3778;42.572;23.426;2023-12-29T12:20:10;93924.78;;;13.31;42.63
7474;BME280;3778;42.572;23.426;2023-12-29T12:22:36;93919.78;;;13.40;41.30
7474;BME280;3778;42.572;23.426;2023-12-29T12:25:03;93927.75;;;13.49;41.73
7474;BME280;3778;42.572;23.426;2023-12-29T12:27:29;93926.72;;;13.79;41.90
7474;BME280;3778;42.572;23.426;2023-12-29T12:29:57;93924.00;;;14.18;40.59
7474;BME280;3778;42.572;23.426;2023-12-29T12:32:26;93921.78;;;14.30;40.93
7474;BME280;3778;42.572;23.426;2023-12-29T12:34:52;93921.06;;;14.72;40.33
7474;BME280;3778;42.572;23.426;2023-12-29T12:37:26;93924.72;;;14.90;39.73
7474;BME280;3778;42.572;23.426;2023-12-29T12:39:51;93923.09;;;15.32;37.26
7474;BME280;3778;42.572;23.426;2023-12-29T12:42:19;93926.09;;;15.39;37.87
7474;BME280;3778;42.572;23.426;2023-12-29T12:45:05;93922.41;;;15.26;37.93
7474;BME280;3778;42.572;23.426;2023-12-29T12:47:37;93927.13;;;15.76;37.70
7474;BME280;3778;42.572;23.426;2023-12-29T12:50:04;93928.50;;;16.01;37.22
7474;BME280;3778;42.572;23.426;2023-12-29T12:52:35;93932.28;;;16.08;36.93
7474;BME280;3778;42.572;23.426;2023-12-29T12:55:02;93926.50;;;16.25;36.49
7474;BME280;3778;42.572;23.426;2023-12-29T12:57:27;93927.88;;;16.36;34.71
7474;BME280;3778;42.572;23.426;2023-12-29T12:59:53;93931.72;;;16.39;34.21
7474;BME280;3778;42.572;23.426;2023-12-29T13:02:19;93932.00;;;16.38;35.30
7474;BME280;3778;42.572;23.426;2023-12-29T13:04:46;93937.88;;;16.29;34.71
7474;BME280;3778;42.572;23.426;2023-12-29T13:07:15;93925.25;;;16.23;35.82
7474;BME280;3778;42.572;23.426;2023-12-29T13:09:41;93927.00;;;16.27;35.50
7474;BME280;3778;42.572;23.426;2023-12-29T13:12:11;93921.03;;;16.27;35.26
7474;BME280;3778;42.572;23.426;2023-12-29T13:14:37;93928.97;;;15.89;36.25
7474;BME280;3778;42.572;23.426;2023-12-29T13:17:10;93933.16;;;16.04;35.59
7474;BME280;3778;42.572;23.426;2023-12-29T13:19:36;93928.88;;;15.94;36.66